createdAt,value
2023-05-24T00:01:42.686Z,10.58
2023-05-24T00:06:45.900Z,11.45
2023-05-24T00:11:48.959Z,11.57
2023-05-24T00:16:52.576Z,11.34
2023-05-24T00:21:56.146Z,11.10
2023-05-24T00:26:59.110Z,10.99
2023-05-24T00:32:02.844Z,11.23
2023-05-24T00:37:06.187Z,11.35
2023-05-24T00:42:09.214Z,11.38
2023-05-24T00:47:12.364Z,11.21
2023-05-24T00:52:15.777Z,11.01
2023-05-24T00:57:19.494Z,11.07
2023-05-24T01:02:25.864Z,11.01
2023-05-24T01:07:39.371Z,10.99
2023-05-24T01:13:14.018Z,11.14
2023-05-24T01:18:51.095Z,11.09
2023-05-24T01:24:26.326Z,10.98
2023-05-24T01:29:30.615Z,10.99
2023-05-24T01:34:34.687Z,11.22
2023-05-24T01:39:37.854Z,11.38
2023-05-24T01:44:56.872Z,11.41
2023-05-24T01:50:10.898Z,11.39
2023-05-24T01:55:19.142Z,11.44
2023-05-24T02:00:22.517Z,11.48
2023-05-24T02:05:26.776Z,11.68
2023-05-24T02:10:30.163Z,11.71
2023-05-24T02:15:33.394Z,11.79
2023-05-24T02:20:39.949Z,11.83
2023-05-24T02:25:43.158Z,11.78
2023-05-24T02:30:46.410Z,11.86
2023-05-24T02:35:49.638Z,11.86
2023-05-24T02:40:52.697Z,11.92
2023-05-24T02:45:55.961Z,11.87
2023-05-24T02:50:59.101Z,11.80
2023-05-24T02:56:02.017Z,11.78
2023-05-24T03:01:08.197Z,11.85
2023-05-24T03:06:11.266Z,12.03
2023-05-24T03:11:14.380Z,12.17
2023-05-24T03:16:17.702Z,12.15
2023-05-24T03:21:23.870Z,12.08
2023-05-24T03:26:27.436Z,12.13
2023-05-24T03:31:30.572Z,12.17
2023-05-24T03:36:34.485Z,12.27
2023-05-24T03:41:37.582Z,12.23
2023-05-24T03:46:40.838Z,12.26
2023-05-24T03:51:44.049Z,12.36
2023-05-24T03:56:47.085Z,12.46
2023-05-24T04:01:50.191Z,12.49
2023-05-24T04:06:54.354Z,12.65
2023-05-24T04:11:57.462Z,12.71
2023-05-24T04:17:00.563Z,12.75
2023-05-24T04:22:03.976Z,12.85
2023-05-24T04:27:07.719Z,12.96
2023-05-24T04:32:10.692Z,12.81
2023-05-24T04:37:17.594Z,13.09
2023-05-24T04:42:22.640Z,13.03
2023-05-24T04:47:25.913Z,12.91
2023-05-24T04:52:28.915Z,12.95
2023-05-24T04:57:32.030Z,13.20
2023-05-24T05:02:35.518Z,13.24
2023-05-24T05:07:38.870Z,13.28
2023-05-24T05:12:42.029Z,13.20
2023-05-24T05:17:45.023Z,13.47
2023-05-24T05:22:48.980Z,13.56
2023-05-24T05:27:52.029Z,13.66
2023-05-24T05:32:55.986Z,13.59
2023-05-24T05:37:59.042Z,13.58
2023-05-24T05:43:02.068Z,13.81
2023-05-24T05:48:05.031Z,13.71
2023-05-24T05:53:08.128Z,13.68
2023-05-24T05:58:12.397Z,13.82
2023-05-24T06:03:15.683Z,14.01
2023-05-24T06:08:19.372Z,13.94
2023-05-24T06:13:22.341Z,13.85
2023-05-24T06:18:27.142Z,13.91
2023-05-24T06:23:30.426Z,14.03
2023-05-24T06:28:33.381Z,14.00
2023-05-24T06:33:38.242Z,14.10
2023-05-24T06:38:41.696Z,14.33
2023-05-24T06:43:44.835Z,14.52
2023-05-24T06:48:47.995Z,14.52
2023-05-24T06:53:51.548Z,14.50
2023-05-24T06:58:54.533Z,14.51
2023-05-24T07:03:57.469Z,14.48
2023-05-24T07:09:02.407Z,14.56
2023-05-24T07:14:05.512Z,14.68
2023-05-24T07:19:08.582Z,14.86
2023-05-24T07:24:12.258Z,14.94
2023-05-24T07:29:28.691Z,14.71
2023-05-24T07:34:31.762Z,14.93
2023-05-24T07:39:34.738Z,14.97
2023-05-24T07:44:37.754Z,15.17
2023-05-24T07:49:40.830Z,15.25
2023-05-24T07:54:43.831Z,15.24
2023-05-24T07:59:46.831Z,15.27
2023-05-24T08:04:49.772Z,15.49
2023-05-24T08:09:53.201Z,15.38
2023-05-24T08:14:56.481Z,15.50
2023-05-24T08:19:59.543Z,15.70
2023-05-24T08:25:02.528Z,15.76
2023-05-24T08:30:08.885Z,15.77
2023-05-24T08:35:20.724Z,15.86
2023-05-24T08:40:25.589Z,15.63
2023-05-24T08:45:32.137Z,15.54
2023-05-24T08:50:35.794Z,15.46
2023-05-24T08:55:40.712Z,15.76
2023-05-24T09:00:43.782Z,15.84
2023-05-24T09:05:47.131Z,15.79
2023-05-24T09:10:55.517Z,15.86
2023-05-24T09:16:00.615Z,15.81
2023-05-24T09:21:03.872Z,15.95
2023-05-24T09:26:10.799Z,15.97
2023-05-24T09:31:14.377Z,15.89
2023-05-24T09:36:17.910Z,16.08
2023-05-24T09:41:21.260Z,16.08
2023-05-24T09:46:24.532Z,16.06
2023-05-24T09:51:27.750Z,15.86
2023-05-24T09:56:31.466Z,15.76
2023-05-24T10:01:36.415Z,15.69
2023-05-24T10:06:40.915Z,15.80
2023-05-24T10:11:45.360Z,15.80
2023-05-24T10:16:48.825Z,15.93
2023-05-24T10:21:54.238Z,16.00
2023-05-24T10:26:57.734Z,16.23
2023-05-24T10:32:01.075Z,16.01
2023-05-24T10:37:04.255Z,15.93
2023-05-24T10:42:09.758Z,15.91
2023-05-24T10:47:14.567Z,15.97
2023-05-24T10:52:17.800Z,15.98
2023-05-24T10:57:24.969Z,15.92
2023-05-24T11:02:28.822Z,15.95
2023-05-24T11:07:33.823Z,15.97
2023-05-24T11:12:39.410Z,15.94
2023-05-24T11:18:10.199Z,15.94
2023-05-24T11:23:15.356Z,15.90
2023-05-24T11:28:18.920Z,16.14
2023-05-24T11:33:24.613Z,16.05
2023-05-24T11:38:27.949Z,15.98
2023-05-24T11:43:32.084Z,16.00
2023-05-24T11:48:35.424Z,16.01
2023-05-24T11:53:38.377Z,15.90
2023-05-24T11:58:50.664Z,16.00
2023-05-24T12:03:55.188Z,16.11
2023-05-24T12:08:58.668Z,16.10
2023-05-24T12:14:01.672Z,16.05
2023-05-24T12:19:11.580Z,16.14
2023-05-24T12:24:18.771Z,16.33
2023-05-24T12:29:21.790Z,16.93
2023-05-24T12:34:25.376Z,16.45
2023-05-24T12:39:36.298Z,16.12
2023-05-24T12:44:39.664Z,15.88
2023-05-24T12:49:43.877Z,15.74
2023-05-24T12:54:47.203Z,16.12
2023-05-24T12:59:50.648Z,16.43
2023-05-24T13:04:53.872Z,16.86
2023-05-24T13:09:57.143Z,17.03
2023-05-24T13:15:00.416Z,16.32
2023-05-24T13:20:07.285Z,16.11
2023-05-24T13:25:11.875Z,15.61
2023-05-24T13:30:15.040Z,15.25
2023-05-24T13:35:18.352Z,14.77
2023-05-24T13:40:21.653Z,14.46
2023-05-24T13:45:25.303Z,14.28
2023-05-24T13:50:28.279Z,14.09
2023-05-24T13:55:32.949Z,13.87
2023-05-24T14:00:36.545Z,13.66
2023-05-24T14:05:40.960Z,13.39
2023-05-24T14:10:44.393Z,13.12
2023-05-24T14:15:47.542Z,12.95
2023-05-24T14:20:50.556Z,12.71
2023-05-24T14:25:53.737Z,12.41
2023-05-24T14:30:56.601Z,12.22
2023-05-24T14:36:00.072Z,11.98
2023-05-24T14:41:06.587Z,11.76
2023-05-24T14:46:12.425Z,11.56
2023-05-24T14:51:15.607Z,11.42
2023-05-24T14:56:18.708Z,11.23
2023-05-24T15:01:22.034Z,11.12
2023-05-24T15:06:25.112Z,11.00
2023-05-24T15:11:28.158Z,10.93
2023-05-24T15:16:31.479Z,10.73
2023-05-24T15:21:34.584Z,10.56
2023-05-24T15:26:37.789Z,10.39
2023-05-24T15:31:41.241Z,10.01
2023-05-24T15:36:46.244Z,9.80
2023-05-24T15:41:49.323Z,9.50
2023-05-24T15:46:53.007Z,9.27
2023-05-24T15:52:04.413Z,9.16
2023-05-24T15:57:08.212Z,8.98
2023-05-24T16:02:11.890Z,8.81
2023-05-24T16:07:14.894Z,8.58
2023-05-24T16:12:18.508Z,8.47
2023-05-24T16:17:21.840Z,8.44
2023-05-24T16:22:25.101Z,8.37
2023-05-24T16:27:28.062Z,8.45
2023-05-24T16:32:31.088Z,8.26
2023-05-24T16:37:34.956Z,8.20
2023-05-24T16:42:37.898Z,7.94
2023-05-24T16:47:41.136Z,7.71
2023-05-24T16:52:45.106Z,7.55
2023-05-24T16:57:48.218Z,7.77
2023-05-24T17:02:51.281Z,7.85
2023-05-24T17:07:55.579Z,7.58
2023-05-24T17:12:58.408Z,7.21
2023-05-24T17:18:01.399Z,7.16
2023-05-24T17:23:04.443Z,6.99
2023-05-24T17:28:07.490Z,6.77
2023-05-24T17:33:10.521Z,6.57
2023-05-24T17:38:13.818Z,6.41
2023-05-24T17:43:16.950Z,6.45
2023-05-24T17:48:19.945Z,6.29
2023-05-24T17:53:31.226Z,6.05
2023-05-24T17:58:38.320Z,5.86
2023-05-24T18:03:42.049Z,5.69
2023-05-24T18:08:45.126Z,5.76
2023-05-24T18:13:48.031Z,5.86
2023-05-24T18:18:51.032Z,6.02
2023-05-24T18:23:54.029Z,6.06
2023-05-24T18:28:57.220Z,6.03
2023-05-24T18:34:01.727Z,6.02
2023-05-24T18:39:05.266Z,5.93
2023-05-24T18:44:10.950Z,5.89
2023-05-24T18:49:15.824Z,5.90
2023-05-24T18:54:18.744Z,5.86
2023-05-24T18:59:24.828Z,5.82
2023-05-24T19:04:28.539Z,5.71
2023-05-24T19:09:31.652Z,5.59
2023-05-24T19:14:34.704Z,5.27
2023-05-24T19:19:37.755Z,5.04
2023-05-24T19:24:40.577Z,5.05
2023-05-24T19:29:43.567Z,5.02
2023-05-24T19:34:46.704Z,4.95
2023-05-24T19:39:49.779Z,4.72
2023-05-24T19:44:52.931Z,4.57
2023-05-24T19:49:56.038Z,4.53
2023-05-24T19:54:59.015Z,4.35
2023-05-24T20:00:02.083Z,4.28
2023-05-24T20:05:14.511Z,4.10
2023-05-24T20:10:17.352Z,3.99
2023-05-24T20:15:20.288Z,3.72
2023-05-24T20:20:23.743Z,3.56
2023-05-24T20:25:27.478Z,3.43
2023-05-24T20:30:30.784Z,3.47
2023-05-24T20:35:33.714Z,3.53
2023-05-24T20:40:36.668Z,3.80
2023-05-24T20:45:39.597Z,4.21
2023-05-24T20:50:42.667Z,4.71
2023-05-24T20:55:45.944Z,4.98
2023-05-24T21:00:49.149Z,5.03
2023-05-24T21:05:52.105Z,5.02
2023-05-24T21:10:56.889Z,5.00
2023-05-24T21:16:02.609Z,5.08
2023-05-24T21:21:07.049Z,5.05
2023-05-24T21:26:09.945Z,5.03
2023-05-24T21:31:13.127Z,4.94
2023-05-24T21:36:16.262Z,4.89
2023-05-24T21:41:19.249Z,4.81
2023-05-24T21:46:22.110Z,4.88
2023-05-24T21:51:24.990Z,4.91
2023-05-24T21:56:28.094Z,4.83
2023-05-24T22:01:31.143Z,4.77
2023-05-24T22:06:34.080Z,4.88
2023-05-24T22:11:37.161Z,4.92
2023-05-24T22:16:41.712Z,4.92
2023-05-24T22:21:46.269Z,5.13
2023-05-24T22:26:50.331Z,5.67
2023-05-24T22:31:53.192Z,5.40
2023-05-24T22:36:57.901Z,5.28
2023-05-24T22:42:00.765Z,5.29
2023-05-24T22:47:03.820Z,5.31
2023-05-24T22:52:07.383Z,5.38
2023-05-24T22:57:10.271Z,5.53
2023-05-24T23:02:13.391Z,5.61
2023-05-24T23:07:16.523Z,5.72
2023-05-24T23:12:21.358Z,5.74
2023-05-24T23:17:24.354Z,5.85
2023-05-24T23:22:27.257Z,5.90
2023-05-24T23:27:30.826Z,6.02
2023-05-24T23:32:34.055Z,6.19
2023-05-24T23:37:36.883Z,6.32
2023-05-24T23:42:39.883Z,6.45
2023-05-24T23:47:42.777Z,6.58
2023-05-24T23:52:46.334Z,6.78
2023-05-24T23:57:49.840Z,7.34
